Latest Coastal Weather Observations for Maria Island

IDT60701

Issued at 12:41 pm EST Sunday 26 June 2016 (issued every 10 minutes, with the page automatically refreshed every 10 minutes)

About coastal observations | Map of coastal stations | Coastal observations for TAS | Marine services | Other Formats
Station Details ID: 092124 Name: MARIA ISLAND (POINT LESUEUR) Lat: -42.66 Lon: 148.02 Height: 28.0 m
Data from the previous 72 hours. | See also: Recent months at Maria Island
Date/Time
EST
Temp

°C
Wind Pressure Rain
since 9am
mm
Weather Cloud Vis
km
Sea
Height
m
Swell
Dir
 
Speed
knots
Gust
knots
hPa Trend Height
m
Period
s
Dir
26/12:30pm 10.1 N 15 17 1012.3 - 0.0 - - - - - - -
26/12:00pm 9.8 N 14 16 1012.8 - 0.0 - - - - - - -
26/11:30am 10.5 N 14 17 1013.2 - 0.0 - - - - - - -
26/11:00am 10.9 N 12 16 1014.0 - 0.0 - - - - - - -
26/10:30am 11.0 N 10 13 1014.4 - 0.0 - - - - - - -
26/10:00am 10.4 NNW 6 8 1014.7 - 0.0 - - - - - - -
26/09:30am 9.9 NNW 9 11 1014.6 - 0.0 - - - - - - -
26/09:00am 9.9 NNW 8 10 1014.8 - 0.0 - - - - - - -
26/08:30am 10.0 NNW 6 9 1014.9 - 0.0 - - - - - - -
26/08:00am 8.9 NNW 7 9 1014.8 - 0.0 - - - - - - -
26/07:30am 9.2 NNW 8 10 1014.9 - 0.0 - - - - - - -
26/07:00am 9.3 NNW 6 10 1014.9 - 0.0 - - - - - - -
26/06:30am 8.6 N 8 9 1014.8 - 0.0 - - - - - - -
26/06:00am 8.6 NNW 9 11 1014.6 - 0.0 - - - - - - -
26/05:30am 8.1 NNW 7 8 1014.4 - 0.0 - - - - - - -
26/05:00am 8.0 NNW 11 13 1014.4 - 0.0 - - - - - - -
26/04:30am 8.1 NNW 9 11 1014.3 - 0.0 - - - - - - -
26/04:00am 8.4 NW 7 9 1014.4 - 0.0 - - - - - - -
26/03:30am 8.4 WNW 11 13 1014.6 - 0.0 - - - - - - -
26/03:00am 8.7 WNW 9 12 1014.8 - 0.0 - - - - - - -
26/02:30am 8.3 WNW 10 12 1014.8 - 0.0 - - - - - - -
26/02:00am 8.8 WNW 7 10 1015.0 - 0.0 - - - - - - -
26/01:30am 8.6 WNW 9 11 1015.0 - 0.0 - - - - - - -
26/01:00am 8.7 WNW 11 13 1015.1 - 0.0 - - - - - - -
26/12:30am 8.4 WNW 9 11 1015.2 - 0.0 - - - - - - -
26/12:00am 8.2 W 7 8 1015.4 - 0.0 - - - - - - -
 
Date/Time
EST
Temp

°C
Wind Pressure Rain
since 9am
mm
Weather Cloud Vis
km
Sea
Height
m
Swell
Dir
 
Speed
knots
Gust
knots
hPa Trend Height
m
Period
s
Dir
25/11:30pm 7.9 WNW 3 5 1015.7 - 0.0 - - - - - - -
25/11:00pm 8.3 W 6 8 1015.7 - 0.0 - - - - - - -
25/10:30pm 8.1 W 4 5 1016.0 - 0.0 - - - - - - -
25/10:00pm 8.7 WNW 4 9 1016.2 - 0.0 - - - - - - -
25/09:30pm 8.1 WNW 7 9 1016.2 - 0.0 - - - - - - -
25/09:00pm 8.4 WNW 8 9 1016.3 - 0.0 - - - - - - -
25/08:30pm 8.2 WNW 5 7 1016.4 - 0.0 - - - - - - -
25/08:00pm 8.5 WNW 5 6 1016.6 - 0.0 - - - - - - -
25/07:30pm 9.4 NNW 6 8 1016.6 - 0.0 - - - - - - -
25/07:00pm 9.2 N 8 9 1016.5 - 0.0 - - - - - - -
25/06:30pm 8.7 N 6 7 1016.4 - 0.0 - - - - - - -
25/06:00pm 8.7 W 6 7 1016.2 - 0.0 - - - - - - -
25/05:30pm 9.0 W 7 8 1016.1 - 0.0 - - - - - - -
25/05:00pm 9.1 W 4 8 1016.1 - 0.0 - - - - - - -
25/04:30pm 9.3 NW 5 7 1016.0 - 0.0 - - - - - - -
25/04:00pm 9.9 WSW 5 7 1015.9 - 0.0 - - - - - - -
25/03:30pm 10.2 WSW 12 15 1015.8 - 0.0 - - - - - - -
25/03:00pm 10.3 WSW 13 15 1015.7 - 0.0 - - - - - - -
25/02:30pm 10.2 WSW 16 20 1015.5 - 0.0 - - - - - - -
25/02:00pm 10.0 WSW 17 21 1015.5 - 0.0 - - - - - - -
25/01:30pm 9.7 WSW 14 19 1015.8 - 0.0 - - - - - - -
25/01:00pm 9.6 WSW 14 21 1015.9 - 0.0 - - - - - - -
25/12:30pm 9.4 SW 15 20 1015.9 - 0.0 - - - - - - -
25/12:00pm 9.4 SW 13 18 1016.1 - 0.0 - - - - - - -
25/11:30am 9.1 WSW 14 20 1016.3 - 0.0 - - - - - - -
25/11:00am 8.7 WSW 12 18 1016.4 - 0.0 - - - - - - -
25/10:30am 8.2 WSW 13 16 1016.6 - 0.0 - - - - - - -
25/10:00am 7.9 WSW 14 17 1016.6 - 0.0 - - - - - - -
25/09:30am 7.6 SW 15 22 1016.2 - 0.0 - - - - - - -
25/09:00am 7.1 SW 15 20 1015.9 - 0.0 - - - - - - -
25/08:30am 7.0 SW 14 17 1015.4 - 0.0 - - - - - - -
25/08:00am 6.9 SW 18 23 1015.1 - 0.0 - - - - - - -
25/07:41am 6.8 WSW 16 24 1014.9 - 0.0 - - - - - - -
25/07:30am 6.0 WSW 7 10 1015.0 - 0.0 - - - - - - -
25/07:00am 5.9 WSW 6 10 1014.9 - 0.0 - - - - - - -
25/06:30am 5.7 WSW 8 11 1014.4 - 0.0 - - - - - - -
25/06:00am 5.2 WNW 4 7 1014.2 - 0.0 - - - - - - -
25/05:30am 5.6 W 6 8 1013.7 - 0.0 - - - - - - -
25/05:00am 5.7 W 8 10 1013.3 - 0.0 - - - - - - -
25/04:30am 5.8 WSW 10 14 1012.9 - 0.0 - - - - - - -
25/04:00am 6.1 WSW 12 15 1012.7 - 0.0 - - - - - - -
25/03:30am 6.3 WSW 13 17 1012.5 - 0.0 - - - - - - -
25/03:00am 5.9 W 11 13 1012.2 - 0.0 - - - - - - -
25/02:30am 5.6 W 10 13 1011.9 - 0.0 - - - - - - -
25/02:00am 6.1 W 13 15 1011.3 - 0.0 - - - - - - -
25/01:30am 5.6 W 12 15 1010.9 - 0.0 - - - - - - -
25/01:00am 6.3 WSW 15 21 1010.5 - 0.0 - - - - - - -
25/12:30am 6.3 WSW 12 16 1010.3 - 0.0 - - - - - - -
25/12:00am 6.2 WSW 12 15 1010.1 - 0.0 - - - - - - -
 
Date/Time
EST
Temp

°C
Wind Pressure Rain
since 9am
mm
Weather Cloud Vis
km
Sea
Height
m
Swell
Dir
 
Speed
knots
Gust
knots
hPa Trend Height
m
Period
s
Dir
24/11:30pm 6.4 WSW 16 19 1009.4 - 0.0 - - - - - - -
24/11:00pm 6.8 SW 15 18 1009.2 - 0.0 - - - - - - -
24/10:30pm 6.6 SW 24 30 1008.6 - 0.0 - - - - - - -
24/10:00pm 6.6 SW 21 27 1008.2 - 0.0 - - - - - - -
24/09:30pm 6.5 SW 17 21 1008.2 - 0.0 - - - - - - -
24/09:00pm 6.8 SW 23 28 1007.5 - 0.0 - - - - - - -
24/08:30pm 7.1 SW 17 21 1007.0 - 0.0 - - - - - - -
24/08:00pm 7.0 SW 22 27 1006.3 - 0.0 - - - - - - -
24/07:30pm 7.0 SW 16 20 1005.9 - 0.0 - - - - - - -
24/07:00pm 7.4 SW 14 17 1005.1 - 0.0 - - - - - - -
24/06:30pm 7.4 SW 16 20 1004.3 - 0.0 - - - - - - -
24/06:00pm 7.8 SW 18 25 1003.8 - 0.0 - - - - - - -
24/05:30pm 7.8 SW 11 13 1003.2 - 0.0 - - - - - - -
24/05:00pm 7.8 WSW 8 11 1002.8 - 0.0 - - - - - - -
24/04:30pm 8.1 SW 8 12 1002.1 - 0.0 - - - - - - -
24/04:00pm 8.3 SW 9 12 1001.5 - 0.0 - - - - - - -
24/03:30pm 8.6 SW 11 15 1000.6 - 0.0 - - - - - - -
24/03:00pm 8.8 SW 14 17 999.9 - 0.0 - - - - - - -
24/02:30pm 8.7 SSW 18 22 999.4 - 0.0 - - - - - - -
24/02:00pm 9.3 SW 6 12 999.3 - 0.0 - - - - - - -
24/01:30pm 8.9 SW 7 10 999.1 - 0.0 - - - - - - -
24/01:00pm 8.6 WSW 5 8 998.8 - 0.0 - - - - - - -
24/12:30pm 8.2 W 8 11 998.5 - 0.0 - - - - - - -
24/12:00pm 8.9 SSW 3 5 998.2 - 0.0 - - - - - - -
24/11:30am 8.2 W 5 7 997.9 - 0.0 - - - - - - -
24/11:00am 7.1 WNW 9 11 997.7 - 0.0 - - - - - - -
24/10:30am 6.5 WNW 8 10 997.7 - 0.0 - - - - - - -
24/10:00am 6.7 W 6 10 997.6 - 0.0 - - - - - - -
24/09:30am 6.5 WNW 6 8 997.6 - 0.0 - - - - - - -
24/09:00am 6.7 NNW 6 8 996.9 - 15.4 - - - - - - -
24/08:30am 5.9 NW 8 10 996.8 - 15.4 - - - - - - -
24/08:00am 5.2 NNE 1 3 996.5 - 15.4 - - - - - - -
24/07:30am 5.2 WNW 6 7 995.8 - 15.4 - - - - - - -
24/07:00am 5.4 WNW 11 12 995.7 - 15.4 - - - - - - -
24/06:30am 5.6 WNW 12 14 995.4 - 15.4 - - - - - - -
24/06:00am 5.3 NW 10 13 994.9 - 15.4 - - - - - - -
24/05:30am 5.2 NW 10 12 994.7 - 15.4 - - - - - - -
24/05:00am 5.7 NW 10 12 994.3 - 15.4 - - - - - - -
24/04:30am 6.2 NNW 8 11 994.1 - 15.4 - - - - - - -
24/04:00am 5.6 NW 8 9 994.2 - 15.4 - - - - - - -
24/03:30am 5.6 WNW 6 8 994.3 - 15.4 - - - - - - -
24/03:00am 6.5 NNW 8 10 993.9 - 15.4 - - - - - - -
24/02:30am 6.3 NNW 9 11 993.7 - 15.4 - - - - - - -
24/02:00am 6.2 NW 9 11 993.2 - 15.4 - - - - - - -
24/01:30am 6.6 NW 10 12 993.1 - 15.4 - - - - - - -
24/01:00am 6.5 NW 8 9 993.0 - 15.4 - - - - - - -
24/12:30am 6.7 NW 8 10 993.0 - 15.4 - - - - - - -
24/12:00am 7.4 WNW 11 15 992.8 - 15.4 - - - - - - -
 
Date/Time
EST
Temp

°C
Wind Pressure Rain
since 9am
mm
Weather Cloud Vis
km
Sea
Height
m
Swell
Dir
 
Speed
knots
Gust
knots
hPa Trend Height
m
Period
s
Dir
23/11:30pm 7.1 WNW 6 8 992.6 - 15.4 - - - - - - -
23/11:00pm 7.3 NNW 7 9 992.5 - 15.4 - - - - - - -
23/10:30pm 7.3 NW 5 8 992.3 - 15.4 - - - - - - -
23/10:00pm 7.3 NW 5 8 992.4 - 15.4 - - - - - - -
23/09:30pm 7.3 NW 6 8 992.3 - 15.4 - - - - - - -
23/09:00pm 7.1 WNW 5 8 991.6 - 15.4 - - - - - - -
23/08:30pm 6.8 NW 7 9 991.2 - 15.4 - - - - - - -
23/08:00pm 7.2 NW 10 12 990.6 - 15.4 - - - - - - -
23/07:30pm 7.0 NNW 7 8 990.1 - 15.4 - - - - - - -
23/07:00pm 6.7 NW 4 6 990.7 - 15.2 - - - - - - -
23/06:30pm 6.8 WNW 3 5 990.7 - 14.2 - - - - - - -
23/06:00pm 6.9 SW 6 9 990.4 - 13.4 Rain - - - - - -
23/05:30pm 6.9 SW 10 17 990.3 - 12.8 - - - - - - -
23/05:00pm 7.3 WSW 8 10 990.3 - 9.2 - - - - - - -
23/04:30pm 7.9 SW 10 13 989.7 - 6.2 - - - - - - -
23/04:00pm 8.7 NNW 2 4 989.7 - 4.2 - - - - - - -
23/03:30pm 8.8 NE 3 4 989.6 - 2.2 - - - - - - -
23/03:00pm 8.9 SSW 4 7 989.2 - 0.8 Rain - - - - - -
23/02:30pm 9.2 WSW 9 12 989.2 - 0.2 - - - - - - -
23/02:00pm 10.6 NW 14 18 989.8 - 0.0 - - - - - - -
23/01:30pm 11.4 NW 13 17 990.0 - 0.0 - - - - - - -
23/01:00pm 11.6 NW 15 21 990.4 - 0.0 - - - - - - -

Other Formats:

Comma delimited format used in spreadsheet applications
http://www.bom.gov.au/fwo/IDT60701/IDT60701.95988.axf

JavaScript Object Notation format (JSON) in row-major order
http://www.bom.gov.au/fwo/IDT60701/IDT60701.95988.json